Flight Track Log - Related Links

Times and Time Zones

All times are in EDT time to prevent confusion due to time zone crossing. See the OPT332 flight status page for this flight to view local times or setup timezone preferences in your user account.

Time Position Orientation Groundspeed Altitude Reporting Facility
EDT Latitude Longitude Course Direction KTS MPH feet Rate Location/Type
Tue 02:19:17 PM 35.9317 -115.1431 193° South 175 201 5,800  Level Los Angeles Center
Tue 02:20:19 PM 35.8739 -115.1817 208° Southwest 228 262 9,200 3,242 Climbing Los Angeles Center
Tue 02:21:21 PM 35.8014 -115.2206 204° Southwest 273 314 12,500 3,290 Climbing Los Angeles Center
Tue 02:22:23 PM 35.7222 -115.2619 203° Southwest 300 345 16,000 3,504 Climbing Los Angeles Center
Tue 02:23:26 PM 35.6414 -115.3403 218° Southwest 309 356 19,800 2,880 Climbing Los Angeles Center
Tue 02:24:28 PM 35.5800 -115.4208 227° Southwest 318 366 22,000 1,065 Climbing Los Angeles Center
Tue 02:25:30 PM 35.5133 -115.5122 228° Southwest 353 406 22,000  Level Los Angeles Center
Tue 02:26:32 PM 35.4397 -115.6122 228° Southwest 369 425 22,000  Level Los Angeles Center
Tue 02:27:34 PM 35.3703 -115.7044 227° Southwest 368 423 22,000  Level Los Angeles Center
Tue 02:28:36 PM 35.3014 -115.7972 228° Southwest 369 425 22,000  Level Los Angeles Center
Tue 02:30:00 PM 35.2102 -115.8951 227° Southwest  Level FlightAware Approximate
Tue 02:30:53 PM 35.1478 -116.0014 227° Southwest 372 428 22,000  Level Los Angeles Center
Tue 02:31:55 PM 35.0775 -116.0936 227° Southwest 371 427 22,000  Level Los Angeles Center
Tue 02:32:57 PM 34.9939 -116.2014 227° Southwest 369 425 22,000  Level Los Angeles Center
Tue 02:33:59 PM 34.9317 -116.2861 228° Southwest 350 403 22,000  Level Los Angeles Center
Tue 02:35:01 PM 34.8636 -116.3756 227° Southwest 354 407 22,000 -532 Level Los Angeles Center
Tue 02:36:03 PM 34.7975 -116.4697 229° Southwest 363 418 20,900 -912 Descending Los Angeles Center
Tue 02:37:06 PM 34.7861 -116.5850 263° West 346 398 20,100 -864 Descending Los Angeles Center
Tue 02:38:08 PM 34.7714 -116.7208 263° West 339 390 19,100 -1,210 Descending Los Angeles Center
Tue 02:39:10 PM 34.7608 -116.8342 264° West 338 389 17,600 -1,452 Descending Los Angeles Center
Tue 02:40:12 PM 34.7489 -116.9442 263° West 331 381 16,100 -1,452 Descending Los Angeles Center
Tue 02:41:14 PM 34.7369 -117.0536 262° West 329 379 14,600 -1,452 Descending Los Angeles Center
Tue 02:42:16 PM 34.7258 -117.1578 263° West 322 371 13,100 -1,258 Descending Los Angeles Center
Tue 02:43:18 PM 34.7158 -117.2603 263° West 313 360 12,000 -528 Descending Los Angeles Center
Tue 02:44:21 PM 34.7061 -117.3592 263° West 302 348 12,000  Level Los Angeles Center
Tue 02:45:23 PM 34.6922 -117.4858 262° West 306 352 12,000  Level Los Angeles Center
Tue 02:46:25 PM 34.6817 -117.5978 263° West 323 372 12,000  Level Los Angeles Center
Tue 02:47:27 PM 34.6694 -117.7128 263° West 338 389 12,000  Level Los Angeles Center
Tue 02:48:29 PM 34.6575 -117.8250 263° West 335 386 12,000  Level Los Angeles Center
Tue 02:49:31 PM 34.6456 -117.9397 263° West 340 391 12,000 -290 Level Los Angeles Center
Tue 02:50:33 PM 34.6333 -118.0525 263° West 338 389 11,400 -1,161 Descending Los Angeles Center
Tue 02:51:35 PM 34.5997 -118.1586 249° West 309 356 9,600 -1,584 Descending Los Angeles Center
Tue 02:52:38 PM 34.5703 -118.2478 248° West 290 334 8,100 -768 Descending Los Angeles Center
Tue 02:53:40 PM 34.5397 -118.3389 248° West 294 338 8,000 -48 Descending Los Angeles Center
Tue 02:54:42 PM 34.5022 -118.4497 248° West 298 343 8,000 -435 Level Los Angeles Center
Tue 02:55:44 PM 34.4725 -118.5389 248° West 290 334 7,100 -629 Descending Los Angeles Center
Tue 02:56:46 PM 34.4436 -118.6242 248° West 279 321 6,700 -488 Descending Los Angeles Center
Tue 02:57:47 PM 34.4108 -118.7231 248° West 282 325 6,100 -581 Descending Los Angeles Center
Tue 02:57:48 PM 34.4139 -118.7119 72° East 281 323 6,100 -143 Level Los Angeles Center
Tue 02:58:29 PM 34.3900 -118.7844 248° West 281 323 6,000 -94 Descending Los Angeles Center
Tue 02:58:52 PM 34.3783 -118.8142 245° Southwest 278 320 6,000  Level Los Angeles Center
Tue 02:59:24 PM 34.3586 -118.8469 234° Southwest 235 270 6,000  Level Los Angeles Center
Tue 02:59:54 PM 34.3503 -118.8628 237° Southwest 230 265 6,000  Level Los Angeles Center
Tue 03:00:31 PM 34.3197 -118.9144 234° Southwest 213 245 6,000  Level Los Angeles Center
Tue 03:01:08 PM 34.3083 -118.9328 233° Southwest 212 244 6,000 -600 Level Los Angeles Center
Tue 03:01:31 PM 34.2903 -118.9656 236° Southwest 169 194 5,400 -1,524 Descending Los Angeles Center
Tue 03:02:11 PM 34.2744 -118.9908 233° Southwest 187 215 4,400 -1,672 Descending Los Angeles Center
Tue 03:02:32 PM 34.2642 -119.0131 241° Southwest 167 192 3,700 -1,452 Descending Los Angeles Center
Tue 03:03:13 PM 34.2525 -119.0392 242° Southwest 177 204 2,900 -1,400 Descending Los Angeles Center
Tue 03:03:32 PM 34.2411 -119.0650 242° Southwest 170 196 2,300 -677 Descending Los Angeles Center
Tue 03:04:15 PM 34.2258 -119.0956 239° Southwest 174 200 2,200 -689 Descending Los Angeles Center
Tue 03:04:33 PM 34.2092 -119.0961 182° South 152 175 1,600 -846 Descending Los Angeles Center
Tue 03:05:33 PM 34.1853 -119.0672 135° Southeast 136 157 1,100 -470 Descending Los Angeles Center
Tue 03:06:28 PM 34.2106 -119.0539 24° Northeast 135 155 700 -436 Descending Los Angeles Center
Tue 03:08:00 PM 34.2000 -119.0833 320° Northwest  Level FlightAware Approximate
Tue 03:15:00 PM 34.2137 -119.0944 320° Northwest  Level Estimated

Login

Don't have an account? Register now (free) for customized features, flight alerts, and more!